createdAt,value
2019-05-02T00:01:31.540Z,8.70
2019-05-02T00:04:05.365Z,8.70
2019-05-02T00:06:44.072Z,8.70
2019-05-02T00:09:17.764Z,8.70
2019-05-02T00:11:58.488Z,8.70
2019-05-02T00:14:26.954Z,8.80
2019-05-02T00:17:00.732Z,8.80
2019-05-02T00:19:34.492Z,8.80
2019-05-02T00:22:16.660Z,8.80
2019-05-02T00:24:47.960Z,8.80
2019-05-02T00:27:26.722Z,8.80
2019-05-02T00:30:00.444Z,8.80
2019-05-02T00:32:59.497Z,8.80
2019-05-02T00:35:33.292Z,8.80
2019-05-02T00:38:07.036Z,8.80
2019-05-02T00:40:40.725Z,8.80
2019-05-02T00:43:14.415Z,8.80
2019-05-02T00:45:54.999Z,8.80
2019-05-02T00:51:16.422Z,8.80
2019-05-02T00:53:50.083Z,8.80
2019-05-02T00:56:23.849Z,8.90
2019-05-02T00:58:57.555Z,8.90
2019-05-02T01:01:59.957Z,8.80
2019-05-02T01:04:36.380Z,8.90
2019-05-02T01:09:46.806Z,8.90
2019-05-02T01:12:26.622Z,8.90
2019-05-02T01:14:56.830Z,8.90
2019-05-02T01:17:33.479Z,8.90
2019-05-02T01:20:08.232Z,8.90
2019-05-02T01:22:41.990Z,9.00
2019-05-02T01:25:27.981Z,8.90
2019-05-02T01:31:08.009Z,8.90
2019-05-02T01:37:22.074Z,9.00
2019-05-02T01:39:55.699Z,9.00
2019-05-02T01:42:39.416Z,9.00
2019-05-02T01:45:06.757Z,9.00
2019-05-02T01:47:55.411Z,9.00
2019-05-02T01:50:33.548Z,9.00
2019-05-02T01:53:06.647Z,9.00
2019-05-02T01:55:40.265Z,9.00
2019-05-02T01:58:15.012Z,9.00
2019-05-02T02:00:57.915Z,9.00
2019-05-02T02:03:31.755Z,9.00
2019-05-02T02:06:08.159Z,9.00
2019-05-02T02:08:41.455Z,9.00
2019-05-02T02:11:15.112Z,8.90
2019-05-02T02:13:51.740Z,9.00
2019-05-02T02:16:25.356Z,9.00
2019-05-02T02:19:05.430Z,9.00
2019-05-02T02:21:44.216Z,9.00
2019-05-02T02:24:25.265Z,9.00
2019-05-02T02:26:58.921Z,9.00
2019-05-02T02:29:32.552Z,9.00
2019-05-02T02:32:06.225Z,9.00
2019-05-02T02:34:55.369Z,9.00
2019-05-02T02:37:51.939Z,9.00
2019-05-02T02:40:20.116Z,9.10
2019-05-02T02:42:53.955Z,9.10
2019-05-02T02:45:37.104Z,9.00
2019-05-02T02:48:10.877Z,9.10
2019-05-02T02:50:45.249Z,9.10
2019-05-02T02:56:19.127Z,9.00
2019-05-02T02:58:52.880Z,9.00
2019-05-02T03:01:35.827Z,9.10
2019-05-02T03:04:12.099Z,9.10
2019-05-02T03:06:47.289Z,9.10
2019-05-02T03:09:26.763Z,9.10
2019-05-02T03:12:20.510Z,9.10
2019-05-02T03:14:58.515Z,9.10
2019-05-02T03:17:32.186Z,9.10
2019-05-02T03:20:17.974Z,9.10
2019-05-02T03:22:51.695Z,9.10
2019-05-02T03:25:49.054Z,9.10
2019-05-02T03:28:01.188Z,9.10
2019-05-02T03:30:44.437Z,9.10
2019-05-02T03:33:18.169Z,9.20
2019-05-02T03:35:58.235Z,9.10
2019-05-02T03:38:34.962Z,9.10
2019-05-02T03:41:13.124Z,9.10
2019-05-02T03:43:43.295Z,9.10
2019-05-02T03:46:20.598Z,9.10
2019-05-02T03:49:05.952Z,9.20
2019-05-02T03:51:28.287Z,9.10
2019-05-02T03:56:37.207Z,9.20
2019-05-02T03:59:19.316Z,9.10
2019-05-02T04:01:53.171Z,9.10
2019-05-02T04:04:26.902Z,9.10
2019-05-02T04:07:01.470Z,9.10
2019-05-02T04:09:42.234Z,9.10
2019-05-02T04:12:18.654Z,9.20
2019-05-02T04:14:47.787Z,9.10
2019-05-02T04:17:21.958Z,9.20
2019-05-02T04:20:09.694Z,9.20
2019-05-02T04:22:42.800Z,9.20
2019-05-02T04:25:14.175Z,9.20
2019-05-02T04:27:48.795Z,9.20
2019-05-02T04:30:22.551Z,9.30
2019-05-02T04:32:57.827Z,9.30
2019-05-02T04:35:34.901Z,9.30
2019-05-02T04:38:15.255Z,9.30
2019-05-02T04:40:54.257Z,9.30
2019-05-02T04:43:28.742Z,9.30
2019-05-02T04:46:09.323Z,9.30
2019-05-02T04:48:48.609Z,9.30
2019-05-02T04:51:19.978Z,9.30
2019-05-02T04:53:51.440Z,9.30
2019-05-02T04:56:25.013Z,9.30
2019-05-02T04:59:01.852Z,9.30
2019-05-02T05:01:43.409Z,9.30
2019-05-02T05:04:19.465Z,9.30
2019-05-02T05:06:58.226Z,9.30
2019-05-02T05:09:34.591Z,9.30
2019-05-02T05:12:08.295Z,9.30
2019-05-02T05:15:00.453Z,9.30
2019-05-02T05:17:34.314Z,9.30
2019-05-02T05:20:13.743Z,9.30
2019-05-02T05:22:44.459Z,9.30
2019-05-02T05:25:27.826Z,9.30
2019-05-02T05:28:05.855Z,9.30
2019-05-02T05:30:44.931Z,9.40
2019-05-02T05:33:12.930Z,9.40
2019-05-02T05:35:48.751Z,9.40
2019-05-02T05:38:28.605Z,9.50
2019-05-02T05:41:02.951Z,9.40
2019-05-02T05:43:35.465Z,9.50
2019-05-02T05:46:12.975Z,9.50
2019-05-02T05:48:44.491Z,9.50
2019-05-02T05:51:24.473Z,9.60
2019-05-02T05:54:02.782Z,9.60
2019-05-02T05:56:39.675Z,9.60
2019-05-02T05:59:08.772Z,9.60
2019-05-02T06:01:43.138Z,9.70
2019-05-02T06:04:31.111Z,9.60
2019-05-02T06:07:03.157Z,9.50
2019-05-02T06:09:36.198Z,9.50
2019-05-02T06:12:09.850Z,9.50
2019-05-02T06:14:46.206Z,9.50
2019-05-02T06:17:23.129Z,9.50
2019-05-02T06:19:55.420Z,9.50
2019-05-02T06:22:29.254Z,9.50
2019-05-02T06:25:09.503Z,9.50
2019-05-02T06:27:42.830Z,9.50
2019-05-02T06:30:16.893Z,9.50
2019-05-02T06:32:54.945Z,9.60
2019-05-02T06:35:25.826Z,9.70
2019-05-02T06:37:59.421Z,9.60
2019-05-02T06:40:33.922Z,9.70
2019-05-02T06:43:09.736Z,9.80
2019-05-02T06:45:42.955Z,9.80
2019-05-02T06:48:17.713Z,9.80
2019-05-02T06:50:52.098Z,9.90
2019-05-02T06:53:25.842Z,9.90
2019-05-02T06:55:59.518Z,9.90
2019-05-02T06:58:37.133Z,9.90
2019-05-02T07:01:08.535Z,9.90
2019-05-02T07:03:46.337Z,9.80
2019-05-02T07:06:30.103Z,9.80
2019-05-02T07:09:05.910Z,9.70
2019-05-02T07:11:40.988Z,9.80
2019-05-02T07:14:18.521Z,9.80
2019-05-02T07:16:57.911Z,9.90
2019-05-02T07:19:35.737Z,9.80
2019-05-02T07:22:09.684Z,9.90
2019-05-02T07:24:44.421Z,9.90
2019-05-02T07:27:18.012Z,9.80
2019-05-02T07:29:57.659Z,9.80
2019-05-02T07:32:30.065Z,9.80
2019-05-02T07:35:04.846Z,9.70
2019-05-02T07:38:11.690Z,9.70
2019-05-02T07:40:48.077Z,9.80
2019-05-02T07:43:22.300Z,9.80
2019-05-02T07:45:56.163Z,9.80
2019-05-02T07:48:43.659Z,9.70
2019-05-02T07:51:20.943Z,9.80
2019-05-02T07:53:55.421Z,9.80
2019-05-02T07:56:27.793Z,10.00
2019-05-02T07:59:01.500Z,10.00
2019-05-02T08:01:35.237Z,10.00
2019-05-02T08:04:33.339Z,10.10
2019-05-02T08:07:07.095Z,10.00
2019-05-02T08:09:52.784Z,10.10
2019-05-02T08:12:26.411Z,10.10
2019-05-02T08:15:14.857Z,10.10
2019-05-02T08:17:53.259Z,10.20
2019-05-02T08:20:23.272Z,10.20
2019-05-02T08:22:56.940Z,10.10
2019-05-02T08:25:33.662Z,10.20
2019-05-02T08:28:10.043Z,10.20
2019-05-02T08:30:52.494Z,10.20
2019-05-02T08:33:29.386Z,10.10
2019-05-02T08:36:01.452Z,10.20
2019-05-02T08:38:35.072Z,9.30
2019-05-02T08:41:20.058Z,10.40
2019-05-02T08:43:53.356Z,10.40
2019-05-02T08:46:27.014Z,10.50
2019-05-02T08:49:02.314Z,10.70
2019-05-02T08:51:36.028Z,10.60
2019-05-02T08:54:09.628Z,10.60
2019-05-02T08:56:43.715Z,10.50
2019-05-02T08:59:19.775Z,10.60
2019-05-02T09:02:02.180Z,10.50
2019-05-02T09:04:35.933Z,10.40
2019-05-02T09:07:09.643Z,10.30
2019-05-02T09:09:55.293Z,10.20
2019-05-02T09:12:27.736Z,10.10
2019-05-02T09:15:02.742Z,10.20
2019-05-02T09:17:49.443Z,10.30
2019-05-02T09:20:20.844Z,10.30
2019-05-02T09:22:55.972Z,10.30
2019-05-02T09:25:39.856Z,10.20
2019-05-02T09:28:17.141Z,10.30
2019-05-02T09:30:49.087Z,10.40
2019-05-02T09:33:22.997Z,10.90
2019-05-02T09:36:02.790Z,11.00
2019-05-02T09:38:36.498Z,11.00
2019-05-02T09:41:22.111Z,10.80
2019-05-02T09:43:55.924Z,10.60
2019-05-02T09:46:32.052Z,10.70
2019-05-02T09:49:10.843Z,10.50
2019-05-02T09:51:42.344Z,10.40
2019-05-02T09:54:15.871Z,10.40
2019-05-02T09:56:49.625Z,10.50
2019-05-02T09:59:32.439Z,10.70
2019-05-02T10:02:02.017Z,10.90
2019-05-02T10:04:41.467Z,11.10
2019-05-02T10:07:15.534Z,11.00
2019-05-02T10:09:51.794Z,11.10
2019-05-02T10:12:28.354Z,11.10
2019-05-02T10:15:02.886Z,11.20
2019-05-02T10:17:42.912Z,11.10
2019-05-02T10:20:16.007Z,11.20
2019-05-02T10:23:02.513Z,11.50
2019-05-02T10:25:38.927Z,11.50
2019-05-02T10:28:12.946Z,11.90
2019-05-02T10:30:51.770Z,11.90
2019-05-02T10:33:23.399Z,11.60
2019-05-02T10:35:57.721Z,11.20
2019-05-02T10:38:32.559Z,11.20
2019-05-02T10:41:07.051Z,11.30
2019-05-02T10:43:56.616Z,11.30
2019-05-02T10:49:22.547Z,11.30
2019-05-02T10:52:08.280Z,11.40
2019-05-02T10:54:42.234Z,11.40
2019-05-02T10:57:19.591Z,11.10
2019-05-02T10:59:56.043Z,11.00
2019-05-02T11:02:58.759Z,11.00
2019-05-02T11:05:37.078Z,10.90
2019-05-02T11:08:09.595Z,10.90
2019-05-02T11:10:58.470Z,11.00
2019-05-02T11:13:33.814Z,11.20
2019-05-02T11:16:15.729Z,11.20
2019-05-02T11:21:58.990Z,11.00
2019-05-02T11:24:31.673Z,11.20
2019-05-02T11:27:08.106Z,11.10
2019-05-02T11:29:42.512Z,11.20
2019-05-02T11:32:16.156Z,11.40
2019-05-02T11:34:49.849Z,11.10
2019-05-02T11:37:33.014Z,11.00
2019-05-02T11:40:08.429Z,10.90
2019-05-02T11:42:48.463Z,10.80
2019-05-02T11:45:23.302Z,10.80
2019-05-02T11:48:02.015Z,10.90
2019-05-02T11:50:35.601Z,10.80
2019-05-02T11:53:22.284Z,10.80
2019-05-02T11:55:45.078Z,10.80
2019-05-02T11:58:22.997Z,11.00
2019-05-02T12:00:56.818Z,11.00
2019-05-02T12:06:32.967Z,10.90
2019-05-02T12:09:18.543Z,11.10
2019-05-02T12:11:56.614Z,11.60
2019-05-02T12:14:32.849Z,12.00
2019-05-02T12:17:03.552Z,11.50
2019-05-02T12:19:39.714Z,11.30
2019-05-02T12:22:16.921Z,11.10
2019-05-02T12:24:49.301Z,11.10
2019-05-02T12:27:31.841Z,11.30
2019-05-02T12:30:06.578Z,11.40
2019-05-02T12:32:42.680Z,11.50
2019-05-02T12:35:35.018Z,11.70
2019-05-02T12:38:08.768Z,11.40
2019-05-02T12:40:52.154Z,11.40
2019-05-02T12:43:25.874Z,11.30
2019-05-02T12:45:59.602Z,11.10
2019-05-02T12:48:36.299Z,11.00
2019-05-02T12:51:09.895Z,10.90
2019-05-02T12:53:43.486Z,10.90
2019-05-02T12:56:19.403Z,10.80
2019-05-02T12:58:53.239Z,10.60
2019-05-02T13:01:32.683Z,10.70
2019-05-02T13:04:13.827Z,10.50
2019-05-02T13:06:47.590Z,10.50
2019-05-02T13:09:23.231Z,10.40
2019-05-02T13:12:02.873Z,10.40
2019-05-02T13:14:36.546Z,10.30
2019-05-02T13:17:12.010Z,10.20
2019-05-02T13:19:55.581Z,10.30
2019-05-02T13:22:29.596Z,10.30
2019-05-02T13:25:05.303Z,10.20
2019-05-02T13:27:59.231Z,10.20
2019-05-02T13:30:42.746Z,10.30
2019-05-02T13:33:12.210Z,10.30
2019-05-02T13:35:47.488Z,10.20
2019-05-02T13:38:29.002Z,10.10
2019-05-02T13:41:02.729Z,10.20
2019-05-02T13:43:41.918Z,10.10
2019-05-02T13:46:17.242Z,10.10
2019-05-02T13:48:52.538Z,10.10
2019-05-02T13:51:32.123Z,10.00
2019-05-02T13:54:05.883Z,10.10
2019-05-02T13:59:38.189Z,10.00
2019-05-02T14:02:34.465Z,9.90
2019-05-02T14:05:13.278Z,9.90
2019-05-02T14:08:22.368Z,9.80
2019-05-02T14:10:57.223Z,9.90
2019-05-02T14:13:31.937Z,9.90
2019-05-02T14:16:14.689Z,10.00
2019-05-02T14:18:48.385Z,10.10
2019-05-02T14:21:22.459Z,10.10
2019-05-02T14:23:56.083Z,10.00
2019-05-02T14:26:30.643Z,10.00
2019-05-02T14:29:42.282Z,9.90
2019-05-02T14:32:23.385Z,9.90
2019-05-02T14:34:54.873Z,9.80
2019-05-02T14:37:28.455Z,9.80
2019-05-02T14:40:03.789Z,9.80
2019-05-02T14:42:43.513Z,9.80
2019-05-02T14:45:27.263Z,9.90
2019-05-02T14:48:17.988Z,9.90
2019-05-02T14:50:36.628Z,9.90
2019-05-02T14:53:12.026Z,9.90
2019-05-02T14:55:47.298Z,10.00
2019-05-02T14:58:22.583Z,10.00
2019-05-02T15:00:56.928Z,10.00
2019-05-02T15:03:32.409Z,10.00
2019-05-02T15:06:07.099Z,10.00
2019-05-02T15:08:44.984Z,10.00
2019-05-02T15:11:18.831Z,9.90
2019-05-02T15:13:52.620Z,9.90
2019-05-02T15:16:39.353Z,9.80
2019-05-02T15:19:05.293Z,9.80
2019-05-02T15:21:42.206Z,9.90
2019-05-02T15:24:16.058Z,9.90
2019-05-02T15:26:49.807Z,9.90
2019-05-02T15:29:27.077Z,9.90
2019-05-02T15:32:12.657Z,9.90
2019-05-02T15:35:03.535Z,9.90
2019-05-02T15:37:37.162Z,9.90
2019-05-02T15:40:47.052Z,9.90
2019-05-02T15:43:02.850Z,9.90
2019-05-02T15:45:43.436Z,9.90
2019-05-02T15:48:14.672Z,9.90
2019-05-02T15:50:52.932Z,8.50
2019-05-02T15:53:29.303Z,9.90
2019-05-02T15:56:03.049Z,9.80
2019-05-02T15:58:36.665Z,9.90
2019-05-02T16:01:22.455Z,9.90
2019-05-02T16:03:57.593Z,9.80
2019-05-02T16:06:33.793Z,9.60
2019-05-02T16:11:40.256Z,9.30
2019-05-02T16:14:17.171Z,9.30
2019-05-02T16:16:52.171Z,9.10
2019-05-02T16:19:32.757Z,9.00
2019-05-02T16:22:11.483Z,8.90
2019-05-02T16:24:49.021Z,8.70
2019-05-02T16:27:44.329Z,8.70
2019-05-02T16:30:22.304Z,8.70
2019-05-02T16:32:58.955Z,8.60
2019-05-02T16:35:37.093Z,8.70
2019-05-02T16:38:12.263Z,8.80
2019-05-02T16:40:46.126Z,8.80
2019-05-02T16:43:19.828Z,8.80
2019-05-02T16:45:53.576Z,8.90
2019-05-02T16:48:37.414Z,8.90
2019-05-02T16:51:08.237Z,8.90
2019-05-02T16:53:42.636Z,8.90
2019-05-02T16:56:16.381Z,8.90
2019-05-02T16:58:52.252Z,8.90
2019-05-02T17:04:07.712Z,8.90
2019-05-02T17:06:42.640Z,9.00
2019-05-02T17:09:38.679Z,9.00
2019-05-02T17:12:11.887Z,9.00
2019-05-02T17:14:51.577Z,9.00
2019-05-02T17:17:26.505Z,9.00
2019-05-02T17:20:00.066Z,9.00
2019-05-02T17:22:33.799Z,9.00
2019-05-02T17:25:08.412Z,9.00
2019-05-02T17:27:42.389Z,9.00
2019-05-02T17:30:22.516Z,9.00
2019-05-02T17:32:56.333Z,9.00
2019-05-02T17:35:49.322Z,9.00
2019-05-02T17:38:18.999Z,9.00
2019-05-02T17:40:54.469Z,9.00
2019-05-02T17:43:28.582Z,9.00
2019-05-02T17:46:04.574Z,9.00
2019-05-02T17:48:39.264Z,8.90
2019-05-02T17:51:14.672Z,9.00
2019-05-02T17:53:49.970Z,9.00
2019-05-02T17:56:29.992Z,9.00
2019-05-02T17:59:03.837Z,9.00
2019-05-02T18:01:39.144Z,8.90
2019-05-02T18:04:18.961Z,9.00
2019-05-02T18:06:55.152Z,9.00
2019-05-02T18:09:31.601Z,9.00
2019-05-02T18:12:07.273Z,9.00
2019-05-02T18:14:38.712Z,9.00
2019-05-02T18:17:12.816Z,9.00
2019-05-02T18:20:02.311Z,9.00
2019-05-02T18:22:34.859Z,9.00
2019-05-02T18:25:11.651Z,9.00
2019-05-02T18:27:45.495Z,8.90
2019-05-02T18:30:22.851Z,8.90
2019-05-02T18:33:03.405Z,8.80
2019-05-02T18:35:37.468Z,8.80
2019-05-02T18:38:10.407Z,8.70
2019-05-02T18:40:51.758Z,8.70
2019-05-02T18:43:25.696Z,8.70
2019-05-02T18:46:07.461Z,8.50
2019-05-02T18:48:42.072Z,8.50
2019-05-02T18:51:19.055Z,8.40
2019-05-02T18:53:53.061Z,8.40
2019-05-02T18:56:35.653Z,8.50
2019-05-02T18:59:05.846Z,8.50
2019-05-02T19:01:47.505Z,8.50
2019-05-02T19:04:18.524Z,8.40
2019-05-02T19:06:52.124Z,8.50
2019-05-02T19:09:33.251Z,8.50
2019-05-02T19:12:13.407Z,8.50
2019-05-02T19:14:42.628Z,8.60
2019-05-02T19:17:16.388Z,8.70
2019-05-02T19:19:58.044Z,8.70
2019-05-02T19:22:32.166Z,8.70
2019-05-02T19:25:12.101Z,8.70
2019-05-02T19:27:52.030Z,8.70
2019-05-02T19:30:28.321Z,8.60
2019-05-02T19:33:06.081Z,8.50
2019-05-02T19:35:37.656Z,8.50
2019-05-02T19:38:16.982Z,8.30
2019-05-02T19:40:52.038Z,8.30
2019-05-02T19:43:25.884Z,8.20
2019-05-02T19:45:59.494Z,8.00
2019-05-02T19:48:36.877Z,8.10
2019-05-02T19:51:18.678Z,8.00
2019-05-02T19:53:53.448Z,8.00
2019-05-02T19:56:26.392Z,8.00
2019-05-02T19:58:59.976Z,7.80
2019-05-02T20:01:41.212Z,7.80
2019-05-02T20:04:14.909Z,7.70
2019-05-02T20:06:52.297Z,7.70
2019-05-02T20:09:26.020Z,7.60
2019-05-02T20:12:07.595Z,7.60
2019-05-02T20:14:38.188Z,7.60
2019-05-02T20:17:14.964Z,7.60
2019-05-02T20:19:57.800Z,7.60
2019-05-02T20:22:31.705Z,7.50
2019-05-02T20:25:06.410Z,7.60
2019-05-02T20:27:42.485Z,7.60
2019-05-02T20:30:16.237Z,7.60
2019-05-02T20:32:51.713Z,7.60
2019-05-02T20:35:25.434Z,7.60
2019-05-02T20:37:58.997Z,7.50
2019-05-02T20:40:46.016Z,7.40
2019-05-02T20:43:19.780Z,7.50
2019-05-02T20:45:58.882Z,7.50
2019-05-02T20:48:32.554Z,7.60
2019-05-02T20:51:09.392Z,7.60
2019-05-02T20:53:42.992Z,7.50
2019-05-02T20:56:24.817Z,7.40
2019-05-02T20:58:58.561Z,7.30
2019-05-02T21:01:37.110Z,7.30
2019-05-02T21:04:12.099Z,7.30
2019-05-02T21:06:52.514Z,7.30
2019-05-02T21:09:41.898Z,7.30
2019-05-02T21:12:15.801Z,7.30
2019-05-02T21:14:52.312Z,7.40
2019-05-02T21:17:29.194Z,7.30
2019-05-02T21:20:03.221Z,7.30
2019-05-02T21:22:42.112Z,7.20
2019-05-02T21:25:15.779Z,7.10
2019-05-02T21:27:49.544Z,7.10
2019-05-02T21:30:25.465Z,7.10
2019-05-02T21:32:59.175Z,7.10
2019-05-02T21:35:32.905Z,7.10
2019-05-02T21:38:08.653Z,7.10
2019-05-02T21:40:43.700Z,7.00
2019-05-02T21:43:24.577Z,7.00
2019-05-02T21:45:58.527Z,7.10
2019-05-02T21:48:35.097Z,6.90
2019-05-02T21:51:31.976Z,6.90
2019-05-02T21:54:12.070Z,6.90
2019-05-02T21:56:47.883Z,6.90
2019-05-02T21:59:22.511Z,6.80
2019-05-02T22:01:57.934Z,6.70
2019-05-02T22:04:31.845Z,6.70
2019-05-02T22:07:05.731Z,6.60
2019-05-02T22:09:39.399Z,6.60
2019-05-02T22:12:13.283Z,6.60
2019-05-02T22:14:47.021Z,6.50
2019-05-02T22:17:21.543Z,6.50
2019-05-02T22:19:55.389Z,6.60
2019-05-02T22:22:29.094Z,6.60
2019-05-02T22:25:02.766Z,6.60
2019-05-02T22:27:44.565Z,6.70
2019-05-02T22:30:18.334Z,6.60
2019-05-02T22:32:54.237Z,6.60
2019-05-02T22:35:32.118Z,6.50
2019-05-02T22:38:15.211Z,6.50
2019-05-02T22:40:50.534Z,6.60
2019-05-02T22:43:26.179Z,6.50
2019-05-02T22:45:59.943Z,6.60
2019-05-02T22:48:33.529Z,6.60
2019-05-02T22:51:12.065Z,6.60
2019-05-02T22:53:46.214Z,6.70
2019-05-02T22:56:21.975Z,6.70
2019-05-02T22:58:58.548Z,6.70
2019-05-02T23:01:32.423Z,6.60
2019-05-02T23:04:06.159Z,6.60
2019-05-02T23:06:44.957Z,6.60
2019-05-02T23:09:18.638Z,6.60
2019-05-02T23:11:52.382Z,6.60
2019-05-02T23:14:26.129Z,6.60
2019-05-02T23:17:00.094Z,6.60
2019-05-02T23:19:37.998Z,6.60
2019-05-02T23:22:12.690Z,6.60
2019-05-02T23:24:48.106Z,6.60
2019-05-02T23:27:42.661Z,6.60
2019-05-02T23:32:54.646Z,6.60
2019-05-02T23:35:28.272Z,6.60
2019-05-02T23:38:02.161Z,6.60
2019-05-02T23:40:35.786Z,6.60
2019-05-02T23:43:12.385Z,6.50
2019-05-02T23:45:45.692Z,6.50
2019-05-02T23:48:22.677Z,6.50
2019-05-02T23:50:56.247Z,6.40
2019-05-02T23:53:31.937Z,6.50
2019-05-02T23:56:05.632Z,6.40
2019-05-02T23:58:42.637Z,6.40
